sensor_id;sensor_type;location;lat;lon;timestamp;pressure;altitude;pressure_sealevel;temperature;humidity
66398;BME280;54877;51.504;3.894;2023-04-06T00:00:11;101784.69;;;12.22;49.45
66398;BME280;54877;51.504;3.894;2023-04-06T00:02:37;101788.22;;;12.23;49.72
66398;BME280;54877;51.504;3.894;2023-04-06T00:05:02;101779.31;;;12.24;49.68
66398;BME280;54877;51.504;3.894;2023-04-06T00:07:28;101776.66;;;12.24;49.49
66398;BME280;54877;51.504;3.894;2023-04-06T00:09:54;101771.47;;;12.21;50.07
66398;BME280;54877;51.504;3.894;2023-04-06T00:12:20;101773.31;;;12.19;49.99
66398;BME280;54877;51.504;3.894;2023-04-06T00:14:45;101776.84;;;12.19;49.99
66398;BME280;54877;51.504;3.894;2023-04-06T00:17:11;101772.41;;;12.20;50.02
66398;BME280;54877;51.504;3.894;2023-04-06T00:19:36;101771.53;;;12.19;49.44
66398;BME280;54877;51.504;3.894;2023-04-06T00:22:01;101764.56;;;12.17;49.30
66398;BME280;54877;51.504;3.894;2023-04-06T00:24:27;101760.19;;;12.16;48.86
66398;BME280;54877;51.504;3.894;2023-04-06T00:26:52;101756.72;;;12.14;48.87
66398;BME280;54877;51.504;3.894;2023-04-06T00:29:18;101751.53;;;12.11;48.16
66398;BME280;54877;51.504;3.894;2023-04-06T00:31:43;101756.06;;;12.09;47.70
66398;BME280;54877;51.504;3.894;2023-04-06T00:34:09;101744.63;;;12.07;47.91
66398;BME280;54877;51.504;3.894;2023-04-06T00:36:35;101750.09;;;12.04;47.93
66398;BME280;54877;51.504;3.894;2023-04-06T00:39:00;101755.53;;;12.01;47.52
66398;BME280;54877;51.504;3.894;2023-04-06T00:41:25;101748.47;;;12.00;47.83
66398;BME280;54877;51.504;3.894;2023-04-06T00:43:51;101738.94;;;11.96;47.75
66398;BME280;54877;51.504;3.894;2023-04-06T00:46:16;101746.88;;;11.96;47.55
66398;BME280;54877;51.504;3.894;2023-04-06T00:48:41;101739.03;;;11.93;47.51
66398;BME280;54877;51.504;3.894;2023-04-06T00:51:07;101736.50;;;11.90;47.42
66398;BME280;54877;51.504;3.894;2023-04-06T00:53:32;101738.34;;;11.88;47.48
66398;BME280;54877;51.504;3.894;2023-04-06T00:55:57;101739.34;;;11.85;47.53
66398;BME280;54877;51.504;3.894;2023-04-06T00:58:23;101733.31;;;11.82;47.94
66398;BME280;54877;51.504;3.894;2023-04-06T01:00:49;101737.88;;;11.78;48.11
66398;BME280;54877;51.504;3.894;2023-04-06T01:03:14;101735.22;;;11.78;48.17
66398;BME280;54877;51.504;3.894;2023-04-06T01:05:41;101728.38;;;11.72;48.36
66398;BME280;54877;51.504;3.894;2023-04-06T01:08:07;101731.16;;;11.69;48.15
66398;BME280;54877;51.504;3.894;2023-04-06T01:10:32;101723.47;;;11.62;48.97
66398;BME280;54877;51.504;3.894;2023-04-06T01:12:58;101729.44;;;11.67;48.99
66398;BME280;54877;51.504;3.894;2023-04-06T01:15:24;101724.19;;;11.65;49.11
66398;BME280;54877;51.504;3.894;2023-04-06T01:17:50;101717.22;;;11.63;49.26
66398;BME280;54877;51.504;3.894;2023-04-06T01:20:16;101713.66;;;11.64;49.54
66398;BME280;54877;51.504;3.894;2023-04-06T01:22:41;101719.03;;;11.62;49.46
66398;BME280;54877;51.504;3.894;2023-04-06T01:25:07;101720.06;;;11.58;49.42
66398;BME280;54877;51.504;3.894;2023-04-06T01:27:33;101706.00;;;11.56;49.38
66398;BME280;54877;51.504;3.894;2023-04-06T01:29:58;101714.00;;;11.55;49.70
66398;BME280;54877;51.504;3.894;2023-04-06T01:32:24;101711.56;;;11.50;49.75
66398;BME280;54877;51.504;3.894;2023-04-06T01:34:49;101704.38;;;11.52;49.36
66398;BME280;54877;51.504;3.894;2023-04-06T01:37:15;101700.81;;;11.53;49.20
66398;BME280;54877;51.504;3.894;2023-04-06T01:39:42;101700.81;;;11.53;49.23
66398;BME280;54877;51.504;3.894;2023-04-06T01:42:08;101695.63;;;11.50;49.16
66398;BME280;54877;51.504;3.894;2023-04-06T01:44:33;101698.09;;;11.33;49.18
66398;BME280;54877;51.504;3.894;2023-04-06T01:46:59;101702.91;;;11.45;49.22
66398;BME280;54877;51.504;3.894;2023-04-06T01:49:24;101692.19;;;11.48;48.99
66398;BME280;54877;51.504;3.894;2023-04-06T01:51:50;101688.72;;;11.46;48.77
66398;BME280;54877;51.504;3.894;2023-04-06T01:54:15;101692.06;;;11.51;48.93
66398;BME280;54877;51.504;3.894;2023-04-06T01:56:40;101684.16;;;11.50;49.09
66398;BME280;54877;51.504;3.894;2023-04-06T01:59:06;101689.34;;;11.53;48.78
66398;BME280;54877;51.504;3.894;2023-04-06T02:01:32;101684.13;;;11.51;49.15
66398;BME280;54877;51.504;3.894;2023-04-06T02:03:57;101677.88;;;11.52;48.95
66398;BME280;54877;51.504;3.894;2023-04-06T02:06:22;101681.31;;;11.54;49.20
66398;BME280;54877;51.504;3.894;2023-04-06T02:08:47;101675.59;;;11.43;49.41
66398;BME280;54877;51.504;3.894;2023-04-06T02:11:13;101676.09;;;11.53;49.51
66398;BME280;54877;51.504;3.894;2023-04-06T02:13:38;101668.38;;;11.47;49.47
66398;BME280;54877;51.504;3.894;2023-04-06T02:16:04;101663.03;;;11.48;49.55
66398;BME280;54877;51.504;3.894;2023-04-06T02:18:30;101669.91;;;11.52;49.60
66398;BME280;54877;51.504;3.894;2023-04-06T02:20:56;101661.03;;;11.53;49.83
66398;BME280;54877;51.504;3.894;2023-04-06T02:23:21;101657.06;;;11.43;50.17
66398;BME280;54877;51.504;3.894;2023-04-06T02:25:47;101665.56;;;11.51;50.00
66398;BME280;54877;51.504;3.894;2023-04-06T02:28:12;101657.75;;;11.47;50.47
66398;BME280;54877;51.504;3.894;2023-04-06T02:30:37;101662.19;;;11.46;50.62
66398;BME280;54877;51.504;3.894;2023-04-06T02:33:03;101656.84;;;11.48;50.70
66398;BME280;54877;51.504;3.894;2023-04-06T02:35:29;101656.09;;;11.44;50.90
66398;BME280;54877;51.504;3.894;2023-04-06T02:37:55;101648.16;;;11.44;50.96
66398;BME280;54877;51.504;3.894;2023-04-06T02:40:20;101648.16;;;11.44;51.22
66398;BME280;54877;51.504;3.894;2023-04-06T02:42:46;101647.16;;;11.47;51.29
66398;BME280;54877;51.504;3.894;2023-04-06T02:45:11;101652.34;;;11.50;51.18
66398;BME280;54877;51.504;3.894;2023-04-06T02:47:36;101650.59;;;11.49;51.85
66398;BME280;54877;51.504;3.894;2023-04-06T02:50:02;101649.25;;;11.39;52.34
66398;BME280;54877;51.504;3.894;2023-04-06T02:52:27;101640.19;;;11.44;52.08
66398;BME280;54877;51.504;3.894;2023-04-06T02:54:53;101641.25;;;11.40;52.52
66398;BME280;54877;51.504;3.894;2023-04-06T02:57:18;101641.25;;;11.40;52.61
66398;BME280;54877;51.504;3.894;2023-04-06T02:59:43;101631.50;;;11.41;52.92
66398;BME280;54877;51.504;3.894;2023-04-06T03:02:09;101629.03;;;11.36;53.11
66398;BME280;54877;51.504;3.894;2023-04-06T03:04:35;101629.91;;;11.37;53.12
66398;BME280;54877;51.504;3.894;2023-04-06T03:07:00;101626.47;;;11.35;53.12
66398;BME280;54877;51.504;3.894;2023-04-06T03:09:25;101630.91;;;11.34;53.58
66398;BME280;54877;51.504;3.894;2023-04-06T03:11:51;101619.66;;;11.28;53.64
66398;BME280;54877;51.504;3.894;2023-04-06T03:14:16;101632.13;;;11.04;54.43
66398;BME280;54877;51.504;3.894;2023-04-06T03:16:46;101624.22;;;11.24;54.08
66398;BME280;54877;51.504;3.894;2023-04-06T03:19:11;101621.09;;;11.14;54.29
66398;BME280;54877;51.504;3.894;2023-04-06T03:21:37;101620.34;;;11.11;54.16
66398;BME280;54877;51.504;3.894;2023-04-06T03:24:02;101620.03;;;11.18;54.06
66398;BME280;54877;51.504;3.894;2023-04-06T03:26:28;101620.91;;;11.19;53.74
66398;BME280;54877;51.504;3.894;2023-04-06T03:28:55;101625.28;;;11.20;53.97
66398;BME280;54877;51.504;3.894;2023-04-06T03:31:21;101617.22;;;11.23;53.40
66398;BME280;54877;51.504;3.894;2023-04-06T03:33:46;101613.03;;;11.17;53.60
66398;BME280;54877;51.504;3.894;2023-04-06T03:36:11;101620.66;;;11.03;54.13
66398;BME280;54877;51.504;3.894;2023-04-06T03:38:37;101618.75;;;11.07;53.88
66398;BME280;54877;51.504;3.894;2023-04-06T03:41:02;101621.13;;;11.13;53.92
66398;BME280;54877;51.504;3.894;2023-04-06T03:43:28;101615.00;;;11.12;53.81
66398;BME280;54877;51.504;3.894;2023-04-06T03:45:53;101623.84;;;11.11;54.10
66398;BME280;54877;51.504;3.894;2023-04-06T03:48:18;101615.97;;;11.10;54.09
66398;BME280;54877;51.504;3.894;2023-04-06T03:50:44;101614.25;;;11.09;54.18
66398;BME280;54877;51.504;3.894;2023-04-06T03:53:09;101617.69;;;11.11;54.29
66398;BME280;54877;51.504;3.894;2023-04-06T03:55:34;101620.44;;;11.08;54.33
66398;BME280;54877;51.504;3.894;2023-04-06T03:57:59;101618.00;;;11.03;54.43
66398;BME280;54877;51.504;3.894;2023-04-06T04:00:25;101616.22;;;11.04;54.72
66398;BME280;54877;51.504;3.894;2023-04-06T04:02:51;101614.47;;;11.03;54.55
66398;BME280;54877;51.504;3.894;2023-04-06T04:05:16;101621.63;;;11.01;55.14
66398;BME280;54877;51.504;3.894;2023-04-06T04:07:42;101618.75;;;11.07;54.69
66398;BME280;54877;51.504;3.894;2023-04-06T04:10:07;101617.47;;;10.94;55.37
66398;BME280;54877;51.504;3.894;2023-04-06T04:12:33;101619.66;;;11.06;55.16
66398;BME280;54877;51.504;3.894;2023-04-06T04:14:58;101620.56;;;11.05;55.54
66398;BME280;54877;51.504;3.894;2023-04-06T04:17:24;101612.50;;;11.08;55.30
66398;BME280;54877;51.504;3.894;2023-04-06T04:19:49;101613.59;;;11.02;55.47
66398;BME280;54877;51.504;3.894;2023-04-06T04:22:14;101611.16;;;10.98;56.21
66398;BME280;54877;51.504;3.894;2023-04-06T04:24:40;101615.47;;;11.00;56.00
66398;BME280;54877;51.504;3.894;2023-04-06T04:27:05;101615.78;;;10.93;56.36
66398;BME280;54877;51.504;3.894;2023-04-06T04:29:31;101605.16;;;10.93;56.35
66398;BME280;54877;51.504;3.894;2023-04-06T04:31:56;101602.53;;;10.93;56.87
66398;BME280;54877;51.504;3.894;2023-04-06T04:34:21;101607.63;;;10.97;56.58
66398;BME280;54877;51.504;3.894;2023-04-06T04:36:50;101609.41;;;10.97;56.73
66398;BME280;54877;51.504;3.894;2023-04-06T04:39:15;101612.13;;;10.95;56.85
66398;BME280;54877;51.504;3.894;2023-04-06T04:41:41;101605.72;;;11.01;56.93
66398;BME280;54877;51.504;3.894;2023-04-06T04:44:06;101616.09;;;11.07;56.72
66398;BME280;54877;51.504;3.894;2023-04-06T04:46:31;101611.59;;;11.09;57.05
66398;BME280;54877;51.504;3.894;2023-04-06T04:48:57;101618.38;;;11.16;56.90
66398;BME280;54877;51.504;3.894;2023-04-06T04:51:22;101614.00;;;11.15;57.09
66398;BME280;54877;51.504;3.894;2023-04-06T04:53:49;101610.53;;;11.13;57.48
66398;BME280;54877;51.504;3.894;2023-04-06T04:56:14;101612.03;;;11.20;57.07
66398;BME280;54877;51.504;3.894;2023-04-06T04:58:40;101610.06;;;11.25;56.99
66398;BME280;54877;51.504;3.894;2023-04-06T05:01:05;101606.94;;;11.15;57.67
66398;BME280;54877;51.504;3.894;2023-04-06T05:03:31;101611.94;;;11.21;57.92
66398;BME280;54877;51.504;3.894;2023-04-06T05:05:58;101610.06;;;11.25;57.88
66398;BME280;54877;51.504;3.894;2023-04-06T05:08:23;101607.59;;;11.20;57.85
66398;BME280;54877;51.504;3.894;2023-04-06T05:10:48;101615.34;;;11.25;57.89
66398;BME280;54877;51.504;3.894;2023-04-06T05:13:14;101610.97;;;11.24;57.95
66398;BME280;54877;51.504;3.894;2023-04-06T05:15:39;101609.31;;;11.21;58.58
66398;BME280;54877;51.504;3.894;2023-04-06T05:18:06;101606.59;;;11.23;58.26
66398;BME280;54877;51.504;3.894;2023-04-06T05:20:32;101610.00;;;11.27;58.59
66398;BME280;54877;51.504;3.894;2023-04-06T05:22:58;101606.25;;;11.32;58.42
66398;BME280;54877;51.504;3.894;2023-04-06T05:25:23;101604.75;;;11.25;58.99
66398;BME280;54877;51.504;3.894;2023-04-06T05:27:49;101604.75;;;11.25;59.56
66398;BME280;54877;51.504;3.894;2023-04-06T05:30:14;101605.66;;;11.24;59.64
66398;BME280;54877;51.504;3.894;2023-04-06T05:32:40;101603.44;;;11.13;60.25
66398;BME280;54877;51.504;3.894;2023-04-06T05:35:06;101603.28;;;11.18;60.03
66398;BME280;54877;51.504;3.894;2023-04-06T05:37:31;101604.13;;;11.18;60.15
66398;BME280;54877;51.504;3.894;2023-04-06T05:39:56;101601.03;;;11.07;60.70
66398;BME280;54877;51.504;3.894;2023-04-06T05:42:22;101598.09;;;11.15;60.33
66398;BME280;54877;51.504;3.894;2023-04-06T05:44:48;101602.34;;;11.19;60.45
66398;BME280;54877;51.504;3.894;2023-04-06T05:47:13;101597.72;;;11.24;60.31
66398;BME280;54877;51.504;3.894;2023-04-06T05:49:38;101596.59;;;11.30;60.13
66398;BME280;54877;51.504;3.894;2023-04-06T05:52:04;101592.41;;;11.24;60.73
66398;BME280;54877;51.504;3.894;2023-04-06T05:54:29;101596.59;;;11.30;60.30
66398;BME280;54877;51.504;3.894;2023-04-06T05:56:55;101597.88;;;11.21;60.77
66398;BME280;54877;51.504;3.894;2023-04-06T05:59:20;101588.72;;;11.28;60.43
66398;BME280;54877;51.504;3.894;2023-04-06T06:01:45;101593.22;;;11.26;60.65
66398;BME280;54877;51.504;3.894;2023-04-06T06:04:11;101588.59;;;11.31;60.77
66398;BME280;54877;51.504;3.894;2023-04-06T06:06:36;101592.50;;;11.23;61.15
66398;BME280;54877;51.504;3.894;2023-04-06T06:09:01;101589.41;;;11.33;61.06
66398;BME280;54877;51.504;3.894;2023-04-06T06:11:28;101592.28;;;11.27;61.48
66398;BME280;54877;51.504;3.894;2023-04-06T06:13:54;101587.09;;;11.24;61.85
66398;BME280;54877;51.504;3.894;2023-04-06T06:16:19;101593.03;;;11.31;61.61
66398;BME280;54877;51.504;3.894;2023-04-06T06:18:45;101588.84;;;11.25;61.70
66398;BME280;54877;51.504;3.894;2023-04-06T06:21:10;101587.25;;;11.21;61.63
66398;BME280;54877;51.504;3.894;2023-04-06T06:23:39;101586.41;;;11.20;61.74
66398;BME280;54877;51.504;3.894;2023-04-06T06:26:06;101587.75;;;11.09;62.40
66398;BME280;54877;51.504;3.894;2023-04-06T06:28:31;101583.75;;;10.99;62.64
66398;BME280;54877;51.504;3.894;2023-04-06T06:30:57;101578.38;;;11.00;62.56
66398;BME280;54877;51.504;3.894;2023-04-06T06:33:23;101585.53;;;10.98;62.51
66398;BME280;54877;51.504;3.894;2023-04-06T06:35:50;101584.88;;;10.92;62.64
66398;BME280;54877;51.504;3.894;2023-04-06T06:38:16;101580.50;;;10.91;63.14
66398;BME280;54877;51.504;3.894;2023-04-06T06:40:41;101578.38;;;11.00;63.20
66398;BME280;54877;51.504;3.894;2023-04-06T06:43:06;101573.16;;;10.99;63.12
66398;BME280;54877;51.504;3.894;2023-04-06T06:45:32;101571.63;;;10.92;63.13
66398;BME280;54877;51.504;3.894;2023-04-06T06:47:57;101574.06;;;10.98;63.13
66398;BME280;54877;51.504;3.894;2023-04-06T06:50:23;101570.63;;;10.96;63.28
66398;BME280;54877;51.504;3.894;2023-04-06T06:52:48;101562.66;;;10.96;63.17
66398;BME280;54877;51.504;3.894;2023-04-06T06:55:13;101570.34;;;10.80;64.11
66398;BME280;54877;51.504;3.894;2023-04-06T06:57:40;101562.09;;;10.88;63.74
66398;BME280;54877;51.504;3.894;2023-04-06T07:00:07;101570.09;;;10.86;64.10
66398;BME280;54877;51.504;3.894;2023-04-06T07:02:34;101570.97;;;10.87;64.12
66398;BME280;54877;51.504;3.894;2023-04-06T07:05:00;101564.88;;;10.85;63.97
66398;BME280;54877;51.504;3.894;2023-04-06T07:07:26;101562.09;;;10.88;64.32
66398;BME280;54877;51.504;3.894;2023-04-06T07:09:51;101562.69;;;10.73;64.36
66398;BME280;54877;51.504;3.894;2023-04-06T07:12:16;101555.19;;;10.84;64.95
66398;BME280;54877;51.504;3.894;2023-04-06T07:14:42;101553.09;;;10.92;64.75
66398;BME280;54877;51.504;3.894;2023-04-06T07:17:07;101552.44;;;10.87;65.25
66398;BME280;54877;51.504;3.894;2023-04-06T07:19:32;101553.09;;;10.92;65.31
66398;BME280;54877;51.504;3.894;2023-04-06T07:21:58;101547.47;;;10.99;65.63
66398;BME280;54877;51.504;3.894;2023-04-06T07:24:23;101548.91;;;11.08;65.97
66398;BME280;54877;51.504;3.894;2023-04-06T07:26:48;101542.50;;;11.13;65.67
66398;BME280;54877;51.504;3.894;2023-04-06T07:29:13;101543.59;;;11.08;66.15
66398;BME280;54877;51.504;3.894;2023-04-06T07:31:39;101553.28;;;11.31;65.47
66398;BME280;54877;51.504;3.894;2023-04-06T07:34:04;101544.19;;;11.36;64.90
66398;BME280;54877;51.504;3.894;2023-04-06T07:36:30;101536.78;;;11.44;64.51
66398;BME280;54877;51.504;3.894;2023-04-06T07:38:55;101537.03;;;11.38;63.97
66398;BME280;54877;51.504;3.894;2023-04-06T07:41:20;101541.97;;;11.47;63.77
66398;BME280;54877;51.504;3.894;2023-04-06T07:43:46;101534.38;;;11.38;63.94
66398;BME280;54877;51.504;3.894;2023-04-06T07:46:11;101544.06;;;11.39;63.86
66398;BME280;54877;51.504;3.894;2023-04-06T07:48:37;101536.75;;;11.46;63.40
66398;BME280;54877;51.504;3.894;2023-04-06T07:51:02;101540.38;;;11.43;63.67
66398;BME280;54877;51.504;3.894;2023-04-06T07:53:29;101539.56;;;11.41;63.63
66398;BME280;54877;51.504;3.894;2023-04-06T07:55:55;101532.84;;;11.33;64.16
66398;BME280;54877;51.504;3.894;2023-04-06T07:58:22;101539.53;;;10.99;65.07
66398;BME280;54877;51.504;3.894;2023-04-06T08:00:47;101535.22;;;11.18;64.50
66398;BME280;54877;51.504;3.894;2023-04-06T08:03:12;101531.47;;;11.02;65.29
66398;BME280;54877;51.504;3.894;2023-04-06T08:05:38;101529.19;;;11.15;64.66
66398;BME280;54877;51.504;3.894;2023-04-06T08:08:03;101526.84;;;11.07;64.94
66398;BME280;54877;51.504;3.894;2023-04-06T08:10:28;101525.88;;;11.10;65.43
66398;BME280;54877;51.504;3.894;2023-04-06T08:12:54;101528.13;;;11.19;65.00
66398;BME280;54877;51.504;3.894;2023-04-06T08:15:19;101532.50;;;11.20;65.21
66398;BME280;54877;51.504;3.894;2023-04-06T08:17:45;101530.91;;;11.16;64.94
66398;BME280;54877;51.504;3.894;2023-04-06T08:20:10;101523.91;;;11.15;64.90
66398;BME280;54877;51.504;3.894;2023-04-06T08:22:35;101525.34;;;11.22;64.85
66398;BME280;54877;51.504;3.894;2023-04-06T08:25:01;101524.94;;;11.11;65.69
66398;BME280;54877;51.504;3.894;2023-04-06T08:27:26;101520.69;;;11.07;65.68
66398;BME280;54877;51.504;3.894;2023-04-06T08:29:52;101519.75;;;11.08;66.45
66398;BME280;54877;51.504;3.894;2023-04-06T08:32:17;101520.69;;;11.07;65.80
66398;BME280;54877;51.504;3.894;2023-04-06T08:34:43;101516.00;;;11.13;65.78
66398;BME280;54877;51.504;3.894;2023-04-06T08:37:08;101517.53;;;10.97;66.69
66398;BME280;54877;51.504;3.894;2023-04-06T08:39:33;101524.88;;;10.91;67.21
66398;BME280;54877;51.504;3.894;2023-04-06T08:41:59;101518.78;;;10.89;67.24
66398;BME280;54877;51.504;3.894;2023-04-06T08:44:28;101518.19;;;11.04;66.64
66398;BME280;54877;51.504;3.894;2023-04-06T08:46:54;101514.28;;;10.91;67.24
66398;BME280;54877;51.504;3.894;2023-04-06T08:49:20;101511.22;;;11.01;67.00
66398;BME280;54877;51.504;3.894;2023-04-06T08:51:46;101519.09;;;11.03;66.71
66398;BME280;54877;51.504;3.894;2023-04-06T08:54:12;101514.78;;;10.79;68.03
66398;BME280;54877;51.504;3.894;2023-04-06T08:56:38;101525.03;;;10.88;67.42
66398;BME280;54877;51.504;3.894;2023-04-06T08:59:03;101511.81;;;10.86;67.84
66398;BME280;54877;51.504;3.894;2023-04-06T09:01:30;101511.47;;;10.95;67.74
66398;BME280;54877;51.504;3.894;2023-04-06T09:03:58;101515.19;;;11.11;67.67
66398;BME280;54877;51.504;3.894;2023-04-06T09:06:25;101504.09;;;11.02;67.73
66398;BME280;54877;51.504;3.894;2023-04-06T09:08:52;101509.81;;;11.13;67.29
66398;BME280;54877;51.504;3.894;2023-04-06T09:11:17;101509.97;;;11.10;68.08
66398;BME280;54877;51.504;3.894;2023-04-06T09:16:19;101500.59;;;11.23;68.14
66398;BME280;54877;51.504;3.894;2023-04-06T09:18:45;101500.22;;;11.32;67.53
66398;BME280;54877;51.504;3.894;2023-04-06T09:21:11;101494.22;;;11.27;67.76
66398;BME280;54877;51.504;3.894;2023-04-06T09:23:37;101496.75;;;11.30;68.22
66398;BME280;54877;51.504;3.894;2023-04-06T09:31:11;101488.81;;;11.50;67.83
66398;BME280;54877;51.504;3.894;2023-04-06T09:33:40;101487.06;;;11.49;67.49
66398;BME280;54877;51.504;3.894;2023-04-06T09:36:06;101484.25;;;11.54;67.47
66398;BME280;54877;51.504;3.894;2023-04-06T09:38:34;101478.06;;;11.53;67.46
66398;BME280;54877;51.504;3.894;2023-04-06T09:41:01;101463.56;;;11.62;67.30
66398;BME280;54877;51.504;3.894;2023-04-06T09:43:26;101480.31;;;11.62;67.05
66398;BME280;54877;51.504;3.894;2023-04-06T09:45:52;101473.22;;;11.63;67.40
66398;BME280;54877;51.504;3.894;2023-04-06T09:48:20;101481.50;;;11.55;67.77
66398;BME280;54877;51.504;3.894;2023-04-06T09:50:48;101480.25;;;11.44;67.52
66398;BME280;54877;51.504;3.894;2023-04-06T09:53:15;101472.56;;;11.38;68.20
66398;BME280;54877;51.504;3.894;2023-04-06T09:55:44;101469.84;;;11.39;68.56
66398;BME280;54877;51.504;3.894;2023-04-06T09:58:12;101468.91;;;11.20;68.86
66398;BME280;54877;51.504;3.894;2023-04-06T10:00:43;101471.84;;;11.34;68.27
66398;BME280;54877;51.504;3.894;2023-04-06T10:06:05;101472.84;;;11.32;68.86
66398;BME280;54877;51.504;3.894;2023-04-06T10:08:36;101478.59;;;11.41;68.39
66398;BME280;54877;51.504;3.894;2023-04-06T10:11:06;101472.63;;;11.36;68.92
66398;BME280;54877;51.504;3.894;2023-04-06T10:13:32;101477.00;;;11.37;68.81
66398;BME280;54877;51.504;3.894;2023-04-06T10:15:59;101466.72;;;11.50;68.36
66398;BME280;54877;51.504;3.894;2023-04-06T10:18:26;101474.88;;;11.45;68.61
66398;BME280;54877;51.504;3.894;2023-04-06T10:21:04;101475.47;;;11.52;68.61
66398;BME280;54877;51.504;3.894;2023-04-06T10:23:39;101466.72;;;11.50;68.36
66398;BME280;54877;51.504;3.894;2023-04-06T10:26:12;101464.94;;;11.50;68.43
66398;BME280;54877;51.504;3.894;2023-04-06T10:28:40;101454.59;;;11.44;68.80
66398;BME280;54877;51.504;3.894;2023-04-06T10:31:06;101464.13;;;11.28;69.74
66398;BME280;54877;51.504;3.894;2023-04-06T10:33:32;101461.63;;;11.45;69.31
66398;BME280;54877;51.504;3.894;2023-04-06T10:35:58;101455.19;;;11.31;68.75
66398;BME280;54877;51.504;3.894;2023-04-06T10:38:34;101456.44;;;11.22;69.77
66398;BME280;54877;51.504;3.894;2023-04-06T10:41:07;101459.63;;;11.30;69.83
66398;BME280;54877;51.504;3.894;2023-04-06T10:43:34;101454.97;;;11.35;69.41
66398;BME280;54877;51.504;3.894;2023-04-06T10:46:04;101451.94;;;11.04;70.61
66398;BME280;54877;51.504;3.894;2023-04-06T10:48:40;101449.16;;;11.07;70.06
66398;BME280;54877;51.504;3.894;2023-04-06T10:51:08;101445.19;;;11.17;70.09
66398;BME280;54877;51.504;3.894;2023-04-06T10:53:36;101456.66;;;11.17;70.47
66398;BME280;54877;51.504;3.894;2023-04-06T10:56:01;101453.25;;;11.14;70.56
66398;BME280;54877;51.504;3.894;2023-04-06T10:58:28;101456.25;;;11.06;71.16
66398;BME280;54877;51.504;3.894;2023-04-06T11:00:54;101452.25;;;11.16;70.71
66398;BME280;54877;51.504;3.894;2023-04-06T11:03:24;101452.81;;;11.04;70.96
66398;BME280;54877;51.504;3.894;2023-04-06T11:05:50;101451.69;;;11.10;70.72
66398;BME280;54877;51.504;3.894;2023-04-06T11:08:29;101439.47;;;11.06;70.93
66398;BME280;54877;51.504;3.894;2023-04-06T11:13:41;101442.53;;;11.17;70.50
66398;BME280;54877;51.504;3.894;2023-04-06T11:18:47;101435.31;;;11.20;70.98
66398;BME280;54877;51.504;3.894;2023-04-06T11:21:13;101430.75;;;11.04;71.70
66398;BME280;54877;51.504;3.894;2023-04-06T11:23:39;101436.31;;;11.18;71.15
66398;BME280;54877;51.504;3.894;2023-04-06T11:26:04;101428.81;;;11.28;71.25
66398;BME280;54877;51.504;3.894;2023-04-06T11:28:39;101429.06;;;11.21;71.60
66398;BME280;54877;51.504;3.894;2023-04-06T11:31:06;101431.53;;;11.26;71.47
66398;BME280;54877;51.504;3.894;2023-04-06T11:33:35;101421.25;;;11.18;71.89
66398;BME280;54877;51.504;3.894;2023-04-06T11:36:02;101417.09;;;11.33;71.63
66398;BME280;54877;51.504;3.894;2023-04-06T11:38:28;101407.44;;;11.32;71.55
66398;BME280;54877;51.504;3.894;2023-04-06T11:40:54;101414.47;;;11.52;71.16
66398;BME280;54877;51.504;3.894;2023-04-06T11:43:25;101409.13;;;11.53;71.04
66398;BME280;54877;51.504;3.894;2023-04-06T11:45:58;101405.94;;;11.45;71.13
66398;BME280;54877;51.504;3.894;2023-04-06T11:48:26;101410.13;;;11.51;70.96
66398;BME280;54877;51.504;3.894;2023-04-06T11:50:55;101404.69;;;11.54;70.87
66398;BME280;54877;51.504;3.894;2023-04-06T11:53:21;101400.50;;;11.48;71.22
66398;BME280;54877;51.504;3.894;2023-04-06T11:55:47;101397.78;;;11.50;71.31
66398;BME280;54877;51.504;3.894;2023-04-06T11:58:13;101393.84;;;11.58;71.18
66398;BME280;54877;51.504;3.894;2023-04-06T12:00:38;101395.66;;;11.58;71.40
66398;BME280;54877;51.504;3.894;2023-04-06T12:03:03;101390.81;;;11.67;70.74
66398;BME280;54877;51.504;3.894;2023-04-06T12:05:29;101391.34;;;11.55;71.85
66398;BME280;54877;51.504;3.894;2023-04-06T12:07:54;101391.06;;;11.61;71.33
66398;BME280;54877;51.504;3.894;2023-04-06T12:10:20;101393.28;;;11.72;70.86
66398;BME280;54877;51.504;3.894;2023-04-06T12:12:45;101387.19;;;11.68;70.94
66398;BME280;54877;51.504;3.894;2023-04-06T12:15:11;101393.78;;;11.60;71.54
66398;BME280;54877;51.504;3.894;2023-04-06T12:17:36;101383.66;;;11.69;71.22
66398;BME280;54877;51.504;3.894;2023-04-06T12:20:01;101377.13;;;11.76;71.11
66398;BME280;54877;51.504;3.894;2023-04-06T12:22:27;101378.09;;;11.75;71.50
66398;BME280;54877;51.504;3.894;2023-04-06T12:24:53;101383.16;;;11.80;70.92
66398;BME280;54877;51.504;3.894;2023-04-06T12:27:18;101375.94;;;11.84;71.15
66398;BME280;54877;51.504;3.894;2023-04-06T12:29:43;101365.81;;;11.92;70.88
66398;BME280;54877;51.504;3.894;2023-04-06T12:32:11;101372.19;;;11.88;70.95
66398;BME280;54877;51.504;3.894;2023-04-06T12:34:37;101365.19;;;11.87;71.08
66398;BME280;54877;51.504;3.894;2023-04-06T12:37:02;101357.72;;;11.95;70.63
66398;BME280;54877;51.504;3.894;2023-04-06T12:39:28;101369.34;;;11.92;71.03
66398;BME280;54877;51.504;3.894;2023-04-06T12:41:53;101360.78;;;11.86;70.91
66398;BME280;54877;51.504;3.894;2023-04-06T12:44:18;101364.91;;;11.93;70.67
66398;BME280;54877;51.504;3.894;2023-04-06T12:46:44;101362.59;;;11.85;70.93
66398;BME280;54877;51.504;3.894;2023-04-06T12:49:10;101368.47;;;11.92;70.74
66398;BME280;54877;51.504;3.894;2023-04-06T12:51:36;101366.09;;;11.86;70.60
66398;BME280;54877;51.504;3.894;2023-04-06T12:54:01;101357.88;;;11.92;70.44
66398;BME280;54877;51.504;3.894;2023-04-06T12:56:26;101362.16;;;11.94;70.68
66398;BME280;54877;51.504;3.894;2023-04-06T12:58:52;101357.72;;;11.95;70.84